Time;durP1;ratioP1;P1;durP2;ratioP2;P2;SDS_P1;SDS_P2;PMS_P1;PMS_P2;Temp;Humidity;BMP_temperature;BMP_pressure;BME280_temperature;BME280_humidity;BME280_pressure;Samples;Min_cycle;Max_cycle;Signal;HPM_P1;HPM_P2
2023/11/24 06:23:46;;;;;;;;;;;;;;;;;;;;;
2023/11/24 06:37:34;;;;;;;;;5.75;4.50;;;;;14.47;85.84;101468.00;4717970;30;45593;-64
2023/11/24 06:40:02;;;;;;;;;6.00;3.00;;;;;14.39;85.44;101457.53;4737022;29;45578;-66
2023/11/24 06:42:29;;;;;;;;;4.50;4.50;;;;;14.19;85.63;101422.47;4813169;29;45471;-67
2023/11/24 06:44:55;;;;;;;;;4.25;4.25;;;;;14.34;85.77;101467.56;4827121;29;47795;-66
2023/11/24 06:47:23;;;;;;;;;4.25;4.25;;;;;14.18;85.59;101447.56;4828055;29;45727;-66
2023/11/24 06:49:49;;;;;;;;;4.00;4.00;;;;;14.24;85.49;101447.34;4832593;29;45360;-66
2023/11/24 06:52:15;;;;;;;;;3.75;3.50;;;;;14.24;85.42;101455.41;4834825;29;45420;-66
2023/11/24 06:54:40;;;;;;;;;5.75;3.00;;;;;14.04;85.65;101413.19;4840958;29;48045;-66
2023/11/24 06:57:05;;;;;;;;;6.00;4.50;;;;;14.18;85.63;101434.16;4845779;29;45618;-66
2023/11/24 06:59:31;;;;;;;;;6.00;5.00;;;;;14.17;85.51;101424.34;4846010;29;45587;-66
2023/11/24 07:01:57;;;;;;;;;6.75;4.75;;;;;14.13;85.64;101414.66;4843550;29;45569;-66
2023/11/24 07:04:26;;;;;;;;;4.50;4.50;;;;;14.12;85.72;101415.59;4841252;29;47156;-66
2023/11/24 08:30:15;;;;;;;;;1.00;1.00;;;;;13.46;74.27;101454.50;4855164;29;46450;-63
2023/11/24 08:32:52;;;;;;;;;;;;;;;;;;;;;
2023/11/24 08:36:08;;;;;;;;;;;;;;;;;;;;;
2023/11/24 08:39:13;;;;;;;;;2.00;1.00;;;;;13.54;74.05;101473.03;4837457;29;67971;-64
2023/11/24 08:45:04;;;;;;;;;6.25;2.75;;;;;13.57;74.06;101464.00;4838755;29;46724;-64
2023/11/24 08:47:50;;;;;;;;;;;;;;;;;;;;;
2023/11/24 08:50:21;;;;;;;;;2.00;2.00;;;;;13.75;72.88;101497.38;4845036;29;67981;-64
2023/11/24 08:53:05;;;;;;;;;;;;;;;;;;;;;
2023/11/24 08:55:47;;;;;;;;;;;;;;;;;;;;;
2023/11/24 08:58:17;;;;;;;;;2.00;2.00;;;;;13.52;72.67;101456.97;4839821;29;71878;-64
2023/11/24 09:00:53;;;;;;;;;2.00;2.00;;;;;13.61;72.68;101468.34;4852749;29;47014;-64
2023/11/24 09:03:38;;;;;;;;;2.50;2.50;;;;;13.52;72.84;101451.63;4841765;29;45754;-64
2023/11/24 09:06:04;;;;;;;;;1.50;1.50;;;;;13.68;72.91;101486.88;4838886;29;46986;-64
2023/11/24 09:08:40;;;;;;;;;2.00;0.75;;;;;13.43;72.48;101443.00;4850405;29;45476;-64
2023/11/24 09:11:14;;;;;;;;;0.00;0.00;;;;;13.42;72.89;101450.16;4841274;29;46957;-64
2023/11/24 09:13:44;;;;;;;;;3.00;2.00;;;;;13.39;72.59;101436.84;4846711;29;45599;-63
2023/11/24 09:16:30;;;;;;;;;3.25;1.25;;;;;13.48;72.41;101454.44;4844841;29;47594;-64
2023/11/24 09:18:58;;;;;;;;;4.00;3.00;;;;;13.49;72.01;101443.66;4846424;29;45742;-64
2023/11/24 09:21:24;;;;;;;;;3.00;2.00;;;;;13.26;72.00;101404.16;4865861;29;45585;-68
2023/11/24 09:23:52;;;;;;;;;4.50;2.00;;;;;13.46;72.11;101437.53;4846100;29;45305;-63
2023/11/24 09:26:25;;;;;;;;;3.00;1.50;;;;;13.62;72.12;101470.97;4849400;29;46551;-63
2023/11/24 09:28:53;;;;;;;;;2.75;1.75;;;;;13.47;71.47;101441.97;4850197;29;45632;-63
2023/11/24 09:31:18;;;;;;;;;3.25;3.00;;;;;13.64;71.35;101462.88;4848185;29;45471;-63
2023/11/24 09:33:44;;;;;;;;;2.00;2.00;;;;;13.52;71.24;101456.13;4841264;29;45379;-63
2023/11/24 09:36:12;;;;;;;;;3.25;1.00;;;;;13.37;70.95;101445.91;4859593;29;45553;-63
2023/11/24 09:38:40;;;;;;;;;2.50;2.00;;;;;13.31;70.72;101436.19;4838006;29;46099;-63
2023/11/24 09:41:16;;;;;;;;;6.00;3.00;;;;;13.27;70.45;101434.56;4862506;29;45499;-63
2023/11/24 09:43:42;;;;;;;;;1.25;1.25;;;;;13.45;70.61;101470.66;4846102;29;46192;-63
2023/11/24 09:46:19;;;;;;;;;;;;;;;;;;;;;
2023/11/24 09:48:54;;;;;;;;;1.00;1.00;;;;;13.17;70.75;101442.00;4846881;29;71551;-63
2023/11/24 09:51:23;;;;;;;;;1.75;1.75;;;;;13.33;70.30;101461.19;4865107;29;45792;-63
2023/11/24 09:53:55;;;;;;;;;4.75;1.00;;;;;13.20;69.76;101452.66;4844572;29;45550;-63
2023/11/24 09:56:20;;;;;;;;;1.75;1.75;;;;;13.20;69.81;101451.75;4864088;29;45975;-63
2023/11/24 09:58:56;;;;;;;;;26.25;24.50;;;;;13.36;70.19;101479.00;4847120;29;45973;-63
2023/11/24 10:01:21;;;;;;;;;4.00;3.00;;;;;13.16;69.65;101440.25;4850953;29;45679;-63
2023/11/24 10:03:59;;;;;;;;;8.25;5.75;;;;;13.09;68.88;101433.34;4862954;29;45416;-63
2023/11/24 10:06:26;;;;;;;;;55.25;46.00;;;;;12.95;68.55;101412.34;4849179;29;46466;-63
2023/11/24 10:08:54;;;;;;;;;5.25;3.00;;;;;13.24;68.43;101458.78;4864247;29;45835;-63
2023/11/24 10:11:27;;;;;;;;;5.25;5.00;;;;;13.21;67.77;101457.06;4842816;29;45502;-63
2023/11/24 10:13:56;;;;;;;;;3.75;2.50;;;;;13.24;67.55;101467.69;4842584;29;45520;-63
2023/11/24 10:16:23;;;;;;;;;3.75;2.00;;;;;13.16;67.76;101459.91;4844512;29;48359;-63
2023/11/24 10:18:54;;;;;;;;;3.50;1.25;;;;;13.03;67.69;101421.03;4860200;29;46032;-63
2023/11/24 10:21:23;;;;;;;;;2.00;1.00;;;;;13.10;67.07;101408.31;4843632;29;45500;-63
2023/11/24 10:23:53;;;;;;;;;2.75;2.00;;;;;13.05;66.86;101395.03;4861022;29;47163;-63
2023/11/24 10:26:21;;;;;;;;;3.50;2.00;;;;;13.11;65.73;101405.56;4863461;29;47786;-63
2023/11/24 10:28:51;;;;;;;;;2.50;1.00;;;;;13.28;65.86;101434.50;4842882;29;45951;-64
2023/11/24 10:31:20;;;;;;;;;3.00;2.75;;;;;13.21;65.60;101411.50;4848697;29;45503;-63
2023/11/24 10:33:45;;;;;;;;;6.00;3.00;;;;;13.03;65.84;101380.81;4845457;29;46113;-63
2023/11/24 10:36:11;;;;;;;;;3.75;2.50;;;;;13.12;65.23;101401.94;4841083;29;47224;-63
2023/11/24 10:38:41;;;;;;;;;3.50;1.00;;;;;13.27;65.17;101435.44;4847445;29;45686;-63
2023/11/24 10:41:18;;;;;;;;;5.50;2.00;;;;;13.21;65.14;101432.06;4851470;29;45447;-63
2023/11/24 10:43:48;;;;;;;;;2.00;2.00;;;;;13.24;65.76;101438.19;4845771;29;46028;-63
2023/11/24 10:46:16;;;;;;;;;3.25;0.00;;;;;13.06;65.55;101393.22;4841465;29;47400;-63
2023/11/24 10:49:06;;;;;;;;;6.00;2.00;;;;;13.08;65.44;101394.06;4863507;29;45568;-63
2023/11/24 10:51:48;;;;;;;;;3.00;1.00;;;;;13.25;65.67;101402.44;4844746;29;45516;-63
2023/11/24 10:54:34;;;;;;;;;3.50;3.00;;;;;13.03;65.28;101372.78;4843064;29;45834;-63
2023/11/24 10:57:02;;;;;;;;;3.00;1.75;;;;;13.23;65.45;101406.06;4842069;29;48143;-63
2023/11/24 10:59:28;;;;;;;;;3.25;2.00;;;;;12.95;65.44;101340.88;4842191;29;45541;-63
2023/11/24 11:01:57;;;;;;;;;3.25;2.00;;;;;13.05;65.09;101357.53;4845677;29;45569;-63
2023/11/24 11:04:23;;;;;;;;;2.75;2.00;;;;;13.03;64.98;101345.97;4845845;29;45516;-63
2023/11/24 11:07:31;;;;;;;;;4.00;3.00;;;;;13.24;65.25;101381.03;4847865;29;47298;-63
2023/11/24 11:10:33;;;;;;;;;3.50;2.50;;;;;13.26;64.79;101384.53;4845251;29;45395;-66
2023/11/24 11:13:01;;;;;;;;;3.75;2.75;;;;;13.19;64.93;101364.22;4844187;29;45333;-63
2023/11/24 11:15:29;;;;;;;;;2.25;1.75;;;;;13.05;64.38;101330.72;4843788;29;45545;-63
2023/11/24 11:18:25;;;;;;;;;2.25;1.75;;;;;13.14;64.78;101340.25;4840859;29;46982;-63
2023/11/24 11:20:51;;;;;;;;;3.50;2.00;;;;;13.06;64.67;101323.53;4835464;29;45563;-63
2023/11/24 11:23:17;;;;;;;;;1.00;1.00;;;;;12.98;63.99;101319.31;4842047;29;45300;-63
2023/11/24 11:25:46;;;;;;;;;2.75;1.75;;;;;13.19;64.11;101365.09;4845659;29;45533;-63
2023/11/24 11:28:25;;;;;;;;;4.50;1.00;;;;;13.24;64.22;101351.53;4840349;29;46554;-63
2023/11/24 11:30:59;;;;;;;;;4.00;3.00;;;;;13.05;64.02;101311.97;4846580;29;45373;-63
2023/11/24 11:33:24;;;;;;;;;3.75;1.00;;;;;13.29;64.25;101344.22;4829596;29;45697;-63
2023/11/24 11:36:09;;;;;;;;;3.50;2.25;;;;;13.15;64.05;101317.88;4856546;29;45501;-63
2023/11/24 11:38:45;;;;;;;;;2.00;2.00;;;;;13.24;63.96;101339.00;4843308;29;46611;-63
2023/11/24 11:41:44;;;;;;;;;4.00;2.00;;;;;13.24;64.17;101336.31;4846763;29;45295;-63
2023/11/24 11:44:18;;;;;;;;;3.00;2.00;;;;;13.10;63.81;101295.72;4842159;29;45404;-63
2023/11/24 11:47:15;;;;;;;;;5.00;2.00;;;;;12.98;64.18;101283.63;4846459;29;45610;-63
2023/11/24 11:49:41;;;;;;;;;3.00;2.00;;;;;13.30;63.82;101348.66;4844450;29;48126;-63
2023/11/24 11:52:07;;;;;;;;;2.00;2.00;;;;;13.26;63.50;101336.28;4859907;29;45536;-63
2023/11/24 11:54:36;;;;;;;;;5.50;2.50;;;;;13.11;63.65;101311.75;4845115;29;45459;-63
2023/11/24 11:57:04;;;;;;;;;4.75;2.00;;;;;13.23;63.46;101339.06;4843631;29;45689;-63
2023/11/24 11:59:30;;;;;;;;;2.75;2.00;;;;;12.81;63.68;101268.09;4847075;29;46447;-63
2023/11/24 12:01:57;;;;;;;;;3.50;1.25;;;;;13.09;63.62;101326.13;4844278;29;46978;-63
2023/11/24 12:04:28;;;;;;;;;1.75;1.75;;;;;13.12;63.66;101331.41;4847415;29;45502;-63
2023/11/24 12:06:53;;;;;;;;;3.50;2.00;;;;;13.00;64.06;101313.91;4846127;29;46646;-63
2023/11/24 12:09:23;;;;;;;;;5.25;2.25;;;;;13.13;63.50;101333.13;4846351;29;45564;-63
2023/11/24 12:11:48;;;;;;;;;4.50;4.00;;;;;12.83;63.94;101289.47;4846112;29;45564;-63
2023/11/24 12:14:14;;;;;;;;;2.75;1.00;;;;;12.87;63.97;101289.31;4844532;29;45363;-63
2023/11/24 12:16:50;;;;;;;;;2.00;2.00;;;;;12.98;63.79;101305.94;4846284;29;45325;-63
2023/11/24 12:19:37;;;;;;;;;3.00;2.75;;;;;12.88;64.01;101285.72;4858977;29;47167;-64
2023/11/24 12:22:06;;;;;;;;;2.00;1.25;;;;;12.84;63.93;101272.47;4835095;29;45533;-64
2023/11/24 12:25:10;;;;;;;;;;;;;;;;;;;;;
2023/11/24 12:28:47;;;;;;;;;;;;;;;;;;;;;
2023/11/24 12:31:27;;;;;;;;;4.25;2.00;;;;;12.79;64.36;101265.44;4842876;29;46389;-64
2023/11/24 12:34:32;;;;;;;;;;;;;;;;;;;;;
2023/11/24 12:37:16;;;;;;;;;;;;;;;;;;;;;
2023/11/24 12:40:10;;;;;;;;;;;;;;;;;;;;;
2023/11/24 12:53:14;;;;;;;;;5.00;2.75;;;;;12.82;65.15;101261.81;4789794;29;45331;-64
2023/11/24 12:56:07;;;;;;;;;4.75;3.50;;;;;12.74;65.29;101242.44;4841276;29;46316;-64
2023/11/24 12:59:27;;;;;;;;;;;;;;;;;;;;;
2023/11/24 13:02:20;;;;;;;;;3.50;3.00;;;;;12.57;65.66;101192.13;4835425;29;45550;-63
2023/11/24 13:04:53;;;;;;;;;4.00;3.00;;;;;12.96;65.95;101234.53;4845501;29;45818;-63
2023/11/24 13:10:53;;;;;;;;;;;;;;;;;;;;;
2023/11/24 13:17:20;;;;;;;;;;;;;;;;;;;;;
2023/11/24 13:23:57;;;;;;;;;;;;;;;;;;;;;
2023/11/24 13:27:17;;;;;;;;;;;;;;;;;;;;;
2023/11/24 13:30:25;;;;;;;;;;;;;;;;;;;;;
2023/11/24 13:34:02;;;;;;;;;;;;;;;;;;;;;
2023/11/24 13:40:25;;;;;;;;;;;;;;;;;;;;;
2023/11/24 13:53:05;;;;;;;;;;;;;;;;;;;;;
2023/11/24 13:55:43;;;;;;;;;;;;;;;;;;;;;
2023/11/24 13:58:49;;;;;;;;;;;;;;;;;;;;;
2023/11/24 14:05:01;;;;;;;;;;;;;;;;;;;;;
2023/11/24 14:07:43;;;;;;;;;;;;;;;;;;;;;
2023/11/24 14:10:18;;;;;;;;;3.75;2.00;;;;;11.71;71.02;101211.75;4838647;29;75815;-64
2023/11/24 14:13:16;;;;;;;;;;;;;;;;;;;;;
2023/11/24 14:16:21;;;;;;;;;;;;;;;;;;;;;
2023/11/24 14:18:59;;;;;;;;;;;;;;;;;;;;;
2023/11/24 14:21:54;;;;;;;;;;;;;;;;;;;;;
2023/11/24 14:24:20;;;;;;;;;0.25;0.25;;;;;11.54;72.73;101224.72;4844665;29;71949;-64
2023/11/24 14:26:46;;;;;;;;;10.00;7.50;;;;;11.62;72.22;101247.63;4843998;29;45484;-64
2023/11/24 14:29:34;;;;;;;;;1.00;1.00;;;;;11.76;72.66;101276.66;4863100;29;45391;-64
2023/11/24 14:32:13;;;;;;;;;3.75;2.00;;;;;11.59;72.57;101244.16;4847536;29;47601;-64
2023/11/24 14:34:44;;;;;;;;;1.25;0.50;;;;;11.57;72.16;101254.03;4846444;29;45393;-64
2023/11/24 14:37:19;;;;;;;;;1.50;1.00;;;;;11.70;72.14;101284.84;4862141;29;45483;-64
2023/11/24 14:39:52;;;;;;;;;3.50;2.25;;;;;11.75;71.77;101290.94;4847738;29;45779;-64
2023/11/24 14:42:20;;;;;;;;;1.50;1.50;;;;;11.60;71.38;101270.88;4847737;29;45628;-64
2023/11/24 14:44:52;;;;;;;;;1.00;1.00;;;;;11.75;71.61;101290.09;4839961;29;45508;-64
2023/11/24 14:47:18;;;;;;;;;2.00;2.00;;;;;11.79;71.22;101291.72;4846249;29;45336;-64
2023/11/24 14:49:51;;;;;;;;;4.25;1.00;;;;;11.63;71.84;101281.47;4847376;29;45321;-64
2023/11/24 14:52:19;;;;;;;;;2.50;1.25;;;;;11.52;70.94;101261.31;4861337;29;47096;-64
2023/11/24 14:54:48;;;;;;;;;1.00;1.00;;;;;11.75;70.98;101295.44;4847050;29;45460;-64
2023/11/24 14:57:30;;;;;;;;;3.00;2.00;;;;;11.70;71.53;101294.69;4860182;29;45629;-64
2023/11/24 15:00:02;;;;;;;;;1.25;1.25;;;;;11.70;70.35;101298.22;4847366;29;45789;-64
2023/11/24 15:02:37;;;;;;;;;2.00;2.00;;;;;11.40;70.87;101246.50;4844139;29;47219;-64
2023/11/24 15:05:33;;;;;;;;;4.00;3.75;;;;;11.60;70.70;101284.22;4847175;29;45833;-64
2023/11/24 15:08:07;;;;;;;;;1.25;0.50;;;;;11.79;70.33;101305.09;4853115;29;45321;-64
2023/11/24 15:10:42;;;;;;;;;2.00;2.00;;;;;11.45;69.83;101257.94;4859423;29;45337;-64
2023/11/24 15:13:30;;;;;;;;;3.00;0.50;;;;;11.54;70.01;101276.38;4871557;29;47873;-64
2023/11/24 15:16:04;;;;;;;;;1.50;1.50;;;;;11.35;69.68;101256.44;4842586;29;45680;-64
2023/11/24 15:18:53;;;;;;;;;;;;;;;;;;;;;
2023/11/24 15:21:43;;;;;;;;;;;;;;;;;;;;;
2023/11/24 15:24:19;;;;;;;;;4.25;3.00;;;;;11.22;68.47;101256.75;4845626;29;76674;-64
2023/11/24 15:26:55;;;;;;;;;2.50;1.00;;;;;11.34;69.95;101279.59;4850190;29;45627;-64
2023/11/24 15:29:41;;;;;;;;;2.00;2.00;;;;;11.25;68.44;101261.16;4846860;29;45436;-64
2023/11/24 15:32:17;;;;;;;;;1.00;0.00;;;;;11.41;67.56;101297.25;4848883;29;45373;-64
2023/11/24 15:34:56;;;;;;;;;1.25;0.75;;;;;11.44;66.63;101301.59;4835058;29;45730;-64
2023/11/24 15:37:22;;;;;;;;;0.75;0.00;;;;;11.16;67.36;101264.94;4845340;29;45438;-64
2023/11/24 15:40:17;;;;;;;;;0.00;0.00;;;;;11.21;67.60;101284.41;4844950;29;46207;-64
2023/11/24 15:42:53;;;;;;;;;;;;;;;;;;;;;
2023/11/24 15:45:41;;;;;;;;;;;;;;;;;;;;;
2023/11/24 15:48:07;;;;;;;;;2.00;0.00;;;;;11.39;65.11;101320.44;4847733;29;72732;-63
2023/11/24 15:50:33;;;;;;;;;2.00;1.00;;;;;11.44;65.54;101331.91;4846329;29;45486;-63
2023/11/24 15:53:18;;;;;;;;;;;;;;;;;;;;;
2023/11/24 15:55:50;;;;;;;;;2.00;0.00;;;;;11.17;65.36;101295.22;4840247;29;73983;-64
2023/11/24 15:58:50;;;;;;;;;;;;;;;;;;;;;
2023/11/24 16:01:21;;;;;;;;;0.75;0.75;;;;;11.41;65.09;101348.03;4844465;29;68983;-64
2023/11/24 16:03:48;;;;;;;;;1.00;1.00;;;;;10.97;64.12;101271.69;4846247;29;45504;-63
2023/11/24 16:06:24;;;;;;;;;0.25;0.25;;;;;11.13;63.97;101319.34;4860850;29;45624;-63
2023/11/24 16:08:59;;;;;;;;;0.00;0.00;;;;;11.20;64.05;101337.88;4846314;29;45344;-63
2023/11/24 16:16:21;;;;;;;;;0.25;0.25;;;;;11.16;63.09;101354.91;4816810;29;45854;-67
2023/11/24 16:19:32;;;;;;;;;;;;;;;;;;;;;
2023/11/24 16:22:21;;;;;;;;;;;;;;;;;;;;;
2023/11/24 16:24:55;;;;;;;;;0.50;0.50;;;;;11.05;62.81;101328.47;4841337;29;69066;-66
2023/11/24 16:39:14;;;;;;;;;;;;;;;;;;;;;
2023/11/24 16:42:39;;;;;;;;;;;;;;;;;;;;;
2023/11/24 16:45:18;;;;;;;;;;;;;;;;;;;;;
2023/11/24 16:48:08;;;;;;;;;3.00;0.75;;;;;10.97;60.96;101373.19;4746570;29;73084;-66
2023/11/24 16:50:39;;;;;;;;;2.50;0.00;;;;;10.98;61.04;101386.50;4864984;29;45427;-66
2023/11/24 16:53:38;;;;;;;;;;;;;;;;;;;;;
2023/11/24 16:56:27;;;;;;;;;2.00;1.00;;;;;10.70;60.62;101341.75;4861299;29;74394;-66
2023/11/24 16:59:22;;;;;;;;;;;;;;;;;;;;;
2023/11/24 17:01:56;;;;;;;;;2.00;0.00;;;;;10.63;59.92;101353.50;4877862;29;67460;-66
2023/11/24 17:04:43;;;;;;;;;;;;;;;;;;;;;
2023/11/24 17:07:19;;;;;;;;;1.00;1.00;;;;;10.69;60.46;101381.81;4859590;29;75559;-64
2023/11/24 17:09:46;;;;;;;;;2.00;1.50;;;;;10.46;60.35;101335.19;4859060;29;45718;-66
2023/11/24 17:12:12;;;;;;;;;2.00;2.00;;;;;10.74;59.62;101399.53;4862383;29;45807;-67
2023/11/24 17:14:37;;;;;;;;;0.50;0.50;;;;;10.80;60.10;101402.97;4872328;29;45623;-66
2023/11/24 17:17:03;;;;;;;;;1.25;1.25;;;;;10.81;60.17;101410.03;4861485;29;47161;-66
2023/11/24 17:19:30;;;;;;;;;2.50;2.00;;;;;10.93;60.03;101413.31;4859124;29;45851;-69
2023/11/24 17:21:57;;;;;;;;;1.00;1.00;;;;;10.86;60.15;101413.47;4857633;29;46218;-66
2023/11/24 17:24:22;;;;;;;;;1.00;1.00;;;;;10.79;59.39;101411.88;4864027;29;47186;-66
2023/11/24 17:26:49;;;;;;;;;1.25;1.00;;;;;10.87;59.58;101417.94;4858628;29;45720;-67
2023/11/24 17:29:14;;;;;;;;;1.00;1.00;;;;;10.86;58.32;101432.19;4872391;29;45828;-72
2023/11/24 17:31:42;;;;;;;;;1.00;1.00;;;;;10.69;58.79;101420.09;4877685;29;45467;-67
2023/11/24 17:34:07;;;;;;;;;2.00;1.00;;;;;10.76;58.24;101431.53;4866438;29;45554;-71
2023/11/24 17:36:34;;;;;;;;;0.00;0.00;;;;;10.77;58.66;101430.59;4870972;29;46306;-74
2023/11/24 17:39:00;;;;;;;;;1.00;1.00;;;;;10.72;57.86;101432.50;4881324;29;45508;-70
2023/11/24 17:41:25;;;;;;;;;0.75;0.75;;;;;10.67;57.23;101437.94;4885420;29;45515;-69
2023/11/24 17:43:50;;;;;;;;;2.00;0.75;;;;;10.64;57.31;101446.03;4885762;29;45650;-68
2023/11/24 17:46:16;;;;;;;;;1.75;0.50;;;;;10.66;57.48;101448.63;4877553;29;56811;-67
2023/11/24 17:48:42;;;;;;;;;2.00;1.00;;;;;10.67;57.35;101459.28;4882307;29;46165;-67
2023/11/24 17:51:08;;;;;;;;;3.50;1.00;;;;;10.60;57.57;101438.13;4895684;29;46981;-67
2023/11/24 17:53:35;;;;;;;;;2.00;1.00;;;;;10.67;57.17;101451.28;4880880;29;45631;-67
2023/11/24 17:56:00;;;;;;;;;2.00;0.00;;;;;10.62;58.01;101444.28;4880924;29;47146;-67
2023/11/24 17:58:26;;;;;;;;;1.50;1.00;;;;;10.61;57.31;101439.84;4882003;29;45475;-67
2023/11/24 18:00:55;;;;;;;;;2.50;1.00;;;;;10.67;57.68;101453.94;4862754;29;45918;-67
2023/11/24 18:03:21;;;;;;;;;1.00;1.00;;;;;10.56;56.79;101430.16;4884262;29;45652;-67
2023/11/24 18:05:48;;;;;;;;;1.00;0.00;;;;;10.63;57.41;101446.94;4896869;29;45784;-67
2023/11/24 18:08:15;;;;;;;;;3.50;1.50;;;;;10.63;57.81;101441.59;4882213;29;45380;-66
2023/11/24 18:10:41;;;;;;;;;1.00;1.00;;;;;10.57;57.12;101442.63;4884882;29;45805;-65
2023/11/24 18:13:06;;;;;;;;;3.75;1.75;;;;;10.57;57.29;101455.97;4869280;29;45718;-65
2023/11/24 18:15:32;;;;;;;;;1.00;1.00;;;;;10.60;57.53;101457.66;4881162;29;45919;-67
2023/11/24 18:17:58;;;;;;;;;1.75;0.25;;;;;10.68;57.39;101462.88;4879339;29;45651;-66
2023/11/24 18:20:24;;;;;;;;;2.25;2.00;;;;;10.66;57.62;101456.66;4879629;29;45617;-66
2023/11/24 18:22:52;;;;;;;;;2.25;1.25;;;;;10.58;57.18;101443.47;4883078;29;45358;-72
2023/11/24 18:25:19;;;;;;;;;2.75;1.50;;;;;10.69;56.94;101464.59;4885203;29;46179;-71
2023/11/24 18:27:44;;;;;;;;;2.25;1.25;;;;;10.69;57.32;101462.84;4885125;29;45483;-72
2023/11/24 18:30:11;;;;;;;;;1.75;1.75;;;;;10.57;57.57;101441.72;4881728;29;45491;-66
2023/11/24 18:32:36;;;;;;;;;1.00;1.00;;;;;10.56;57.22;101456.00;4882046;29;45596;-66
2023/11/24 18:35:01;;;;;;;;;1.50;1.00;;;;;10.54;57.03;101455.13;4884135;29;45586;-67
2023/11/24 18:37:27;;;;;;;;;2.00;2.00;;;;;10.49;56.93;101454.34;4867591;29;45370;-66
2023/11/24 18:39:52;;;;;;;;;2.25;1.00;;;;;10.47;56.83;101465.03;4884915;29;45446;-66
2023/11/24 18:42:18;;;;;;;;;3.50;1.00;;;;;10.27;57.12;101427.19;4881837;29;45486;-67
2023/11/24 18:44:44;;;;;;;;;2.00;2.00;;;;;10.50;56.26;101477.47;4882176;29;46314;-67
2023/11/24 18:47:09;;;;;;;;;2.50;1.50;;;;;10.44;56.36;101482.91;4886718;29;45486;-67
2023/11/24 18:49:34;;;;;;;;;2.00;2.00;;;;;10.29;56.94;101468.06;4883981;29;45312;-67
2023/11/24 18:52:00;;;;;;;;;1.00;1.00;;;;;10.41;57.06;101493.66;4885274;29;45241;-67
2023/11/24 18:54:28;;;;;;;;;3.00;2.00;;;;;10.08;57.27;101432.00;4884298;29;49282;-66
2023/11/24 18:56:53;;;;;;;;;2.50;2.50;;;;;10.32;57.46;101466.25;4877984;29;45565;-67
2023/11/24 18:59:19;;;;;;;;;1.75;1.75;;;;;10.28;57.39;101467.19;4871256;29;45448;-66
2023/11/24 19:01:44;;;;;;;;;2.00;2.00;;;;;10.32;57.45;101476.94;4880856;29;45302;-67
2023/11/24 19:04:10;;;;;;;;;1.50;1.50;;;;;10.38;57.65;101487.47;4880874;29;46178;-69
2023/11/24 19:06:35;;;;;;;;;1.00;0.75;;;;;10.33;57.92;101481.34;4882505;29;45531;-71
2023/11/24 19:09:00;;;;;;;;;1.00;1.00;;;;;10.41;57.60;101488.31;4886504;29;45487;-70
2023/11/24 19:11:26;;;;;;;;;3.00;3.00;;;;;10.37;56.94;101491.06;4881873;29;45475;-71
2023/11/24 19:13:51;;;;;;;;;1.00;1.00;;;;;10.38;57.32;101491.94;4878877;29;48101;-66
2023/11/24 19:16:17;;;;;;;;;2.00;2.00;;;;;10.28;56.74;101483.19;4881222;29;45408;-66
2023/11/24 19:18:42;;;;;;;;;3.25;2.00;;;;;10.27;56.34;101497.44;4879628;29;45954;-67
2023/11/24 19:21:11;;;;;;;;;2.50;2.50;;;;;10.26;57.11;101508.16;4878583;29;45507;-66
2023/11/24 19:23:36;;;;;;;;;2.75;2.00;;;;;10.23;57.19;101506.41;4882761;29;45495;-66
2023/11/24 19:26:01;;;;;;;;;3.25;1.75;;;;;10.27;56.42;101504.56;4893208;29;45432;-66
2023/11/24 19:28:27;;;;;;;;;3.50;3.00;;;;;10.10;56.83;101480.88;4890311;29;45383;-66
2023/11/24 19:30:52;;;;;;;;;3.25;2.00;;;;;10.20;57.07;101490.47;4886889;29;45820;-66
2023/11/24 19:33:18;;;;;;;;;2.50;2.50;;;;;10.11;57.20;101483.53;4896028;29;45509;-67
2023/11/24 19:35:45;;;;;;;;;3.50;3.50;;;;;10.06;57.38;101472.06;4881840;29;45397;-66
2023/11/24 19:38:10;;;;;;;;;6.50;4.25;;;;;10.24;57.25;101501.94;4879607;29;45527;-66
2023/11/24 19:40:36;;;;;;;;;2.00;2.00;;;;;10.17;57.17;101488.75;4881593;29;45449;-66
2023/11/24 19:43:01;;;;;;;;;3.75;2.50;;;;;10.26;57.16;101506.38;4887819;29;46749;-67
2023/11/24 19:45:28;;;;;;;;;3.00;3.00;;;;;10.11;57.31;101464.84;4893864;29;45556;-70
2023/11/24 19:47:53;;;;;;;;;5.00;4.00;;;;;10.22;57.28;101493.09;4897413;29;45559;-71
2023/11/24 19:50:18;;;;;;;;;2.25;2.00;;;;;10.06;57.16;101472.06;4868697;29;45649;-70
2023/11/24 19:52:44;;;;;;;;;2.25;2.25;;;;;10.28;57.17;101507.22;4873045;29;47012;-70
2023/11/24 19:55:09;;;;;;;;;3.00;3.00;;;;;10.14;57.39;101491.47;4876422;29;45809;-70
2023/11/24 19:57:35;;;;;;;;;2.25;1.50;;;;;10.24;57.27;101513.53;4886068;29;45378;-71
2023/11/24 20:00:01;;;;;;;;;3.25;2.00;;;;;10.16;57.34;101505.66;4883998;29;45485;-70
2023/11/24 20:02:26;;;;;;;;;4.00;2.25;;;;;10.27;57.32;101517.91;4881793;29;46404;-67
2023/11/24 20:04:54;;;;;;;;;2.00;2.00;;;;;10.22;56.99;101518.00;4876789;29;45456;-68
2023/11/24 20:07:20;;;;;;;;;2.00;2.00;;;;;10.22;57.07;101504.66;4884395;29;45480;-68
2023/11/24 20:09:45;;;;;;;;;2.75;2.75;;;;;10.25;57.73;101519.72;4874318;29;45527;-67
2023/11/24 20:12:11;;;;;;;;;1.50;1.50;;;;;10.22;57.74;101517.13;4876772;29;45864;-67
2023/11/24 20:14:36;;;;;;;;;3.00;1.00;;;;;10.11;57.78;101493.31;4871888;29;49342;-66
2023/11/24 20:17:02;;;;;;;;;4.00;2.75;;;;;10.26;58.06;101517.03;4875327;29;46547;-66
2023/11/24 20:19:29;;;;;;;;;1.00;1.00;;;;;10.13;57.50;101495.03;4887279;29;45501;-66
2023/11/24 20:21:54;;;;;;;;;2.50;2.50;;;;;10.14;57.33;101490.56;4875513;29;46577;-66
2023/11/24 20:24:20;;;;;;;;;1.00;1.00;;;;;10.23;57.75;101521.56;4871243;29;47022;-67
2023/11/24 20:26:45;;;;;;;;;2.00;2.00;;;;;10.18;57.93;101516.31;4871667;29;46046;-67
2023/11/24 20:29:11;;;;;;;;;1.00;1.00;;;;;9.97;57.09;101502.44;4882588;29;45578;-67
2023/11/24 20:31:38;;;;;;;;;5.00;2.00;;;;;10.09;57.48;101525.34;4876856;29;45476;-66
2023/11/24 20:34:04;;;;;;;;;3.25;2.75;;;;;9.93;57.45;101499.84;4862116;29;45855;-66
2023/11/24 20:36:29;;;;;;;;;2.00;2.00;;;;;10.05;57.63;101517.44;4878370;29;45652;-66
2023/11/24 20:38:57;;;;;;;;;3.25;2.00;;;;;10.07;57.86;101518.28;4879931;29;45429;-66
2023/11/24 20:41:23;;;;;;;;;2.25;2.00;;;;;9.95;57.71;101500.69;4879775;29;46287;-66
2023/11/24 20:43:48;;;;;;;;;2.50;2.00;;;;;9.99;58.13;101519.31;4879990;29;45519;-66
2023/11/24 20:46:14;;;;;;;;;5.25;3.00;;;;;9.95;57.68;101512.25;4885808;29;45569;-66
2023/11/24 20:48:44;;;;;;;;;2.00;2.00;;;;;9.79;57.58;101490.31;4878860;29;45760;-65
2023/11/24 20:51:10;;;;;;;;;1.00;1.00;;;;;9.82;57.37;101492.03;4881718;29;45828;-66
2023/11/24 20:53:38;;;;;;;;;4.00;3.00;;;;;10.00;57.52;101522.84;4873289;29;45458;-67
2023/11/24 20:56:08;;;;;;;;;3.00;3.00;;;;;9.85;57.67;101499.09;4878271;29;45590;-66
2023/11/24 20:58:33;;;;;;;;;5.25;1.50;;;;;9.90;57.28;101508.78;4884190;29;45418;-65
2023/11/24 21:00:59;;;;;;;;;4.50;3.50;;;;;9.90;57.49;101519.44;4885963;29;45604;-65
2023/11/24 21:03:25;;;;;;;;;4.00;4.00;;;;;9.79;57.39;101508.09;4876385;29;45793;-66
2023/11/24 21:05:50;;;;;;;;;2.75;2.75;;;;;9.80;57.23;101516.03;4879424;29;45426;-66
2023/11/24 21:08:16;;;;;;;;;3.00;2.25;;;;;9.81;57.37;101506.28;4878640;29;45715;-66
2023/11/24 21:10:41;;;;;;;;;1.75;1.75;;;;;9.87;57.28;101522.16;4877992;29;45899;-66
2023/11/24 21:13:09;;;;;;;;;3.00;2.75;;;;;9.71;57.25;101500.22;4881391;29;47531;-66
2023/11/24 21:15:35;;;;;;;;;3.50;2.00;;;;;9.77;57.18;101513.47;4893503;29;45642;-66
2023/11/24 21:18:04;;;;;;;;;3.00;2.00;;;;;9.56;57.15;101479.16;4882306;29;45750;-66
2023/11/24 21:20:33;;;;;;;;;3.25;3.00;;;;;9.83;57.24;101517.78;4878337;29;45516;-66
2023/11/24 21:23:00;;;;;;;;;1.75;1.75;;;;;9.58;57.04;101496.00;4893982;29;45406;-66
2023/11/24 21:25:28;;;;;;;;;2.00;1.50;;;;;9.66;57.26;101522.53;4882599;29;45660;-66
2023/11/24 21:27:54;;;;;;;;;1.25;1.25;;;;;9.61;56.76;101523.47;4883179;29;45518;-66
2023/11/24 21:30:21;;;;;;;;;5.75;2.00;;;;;9.56;56.55;101514.69;4882540;29;45894;-67
2023/11/24 21:32:47;;;;;;;;;2.25;1.25;;;;;9.54;57.07;101515.59;4882030;29;45747;-66
2023/11/24 21:35:13;;;;;;;;;0.75;0.75;;;;;9.50;56.55;101519.22;4881650;29;45741;-66
2023/11/24 21:37:38;;;;;;;;;2.00;1.00;;;;;9.48;57.04;101529.91;4881200;29;45707;-66
2023/11/24 21:40:06;;;;;;;;;3.00;2.00;;;;;9.39;56.77;101522.94;4865571;29;46007;-66
2023/11/24 21:42:32;;;;;;;;;2.25;2.00;;;;;9.27;56.95;101508.00;4881868;29;45459;-66
2023/11/24 21:44:57;;;;;;;;;1.50;1.00;;;;;9.36;56.19;101527.44;4880052;29;45715;-66
2023/11/24 21:47:23;;;;;;;;;2.00;2.00;;;;;9.41;57.14;101536.25;4882681;29;45658;-66